createdAt,value
2022-08-17T00:00:42.987Z,99991.60
2022-08-17T00:03:13.695Z,99987.20
2022-08-17T00:05:50.381Z,99988.80
2022-08-17T00:08:30.569Z,99994.40
2022-08-17T00:10:59.833Z,99994.60
2022-08-17T00:13:32.831Z,99999.40
2022-08-17T00:16:09.689Z,100002.60
2022-08-17T00:18:58.207Z,100002.80
2022-08-17T00:21:28.038Z,99999.20
2022-08-17T00:24:16.746Z,99997.40
2022-08-17T00:26:45.556Z,99993.40
2022-08-17T00:29:19.531Z,99990.00
2022-08-17T00:31:49.711Z,99986.00
2022-08-17T00:34:18.117Z,99986.60
2022-08-17T00:36:45.920Z,99987.00
2022-08-17T00:39:13.733Z,99991.60
2022-08-17T00:41:42.394Z,99996.00
2022-08-17T00:44:12.381Z,99995.40
2022-08-17T00:46:43.632Z,100002.80
2022-08-17T00:49:14.797Z,100002.80
2022-08-17T00:51:56.871Z,100001.40
2022-08-17T00:54:31.275Z,99999.00
2022-08-17T00:57:05.563Z,99994.00
2022-08-17T00:59:40.335Z,99994.20
2022-08-17T01:02:12.567Z,99994.40
2022-08-17T01:04:42.188Z,99989.80
2022-08-17T01:07:12.158Z,99995.40
2022-08-17T01:09:40.877Z,99999.20
2022-08-17T01:12:10.403Z,100002.60
2022-08-17T01:14:40.286Z,99998.60
2022-08-17T01:17:09.701Z,100000.00
2022-08-17T01:19:40.936Z,100001.60
2022-08-17T01:22:11.410Z,100002.80
2022-08-17T01:24:43.198Z,100004.80
2022-08-17T01:27:13.761Z,100006.60
2022-08-17T01:29:46.570Z,100005.60
2022-08-17T01:32:15.024Z,100006.20
2022-08-17T01:34:50.545Z,100000.00
2022-08-17T01:37:27.771Z,100003.20
2022-08-17T01:40:13.975Z,100001.00
2022-08-17T01:43:10.574Z,100005.40
2022-08-17T01:45:44.413Z,100004.80
2022-08-17T01:48:13.352Z,100001.40
2022-08-17T01:50:44.757Z,100002.80
2022-08-17T01:53:29.847Z,100003.20
2022-08-17T01:56:05.088Z,100006.80
2022-08-17T01:58:34.948Z,100012.60
2022-08-17T02:01:05.642Z,100012.80
2022-08-17T02:03:36.179Z,100015.00
2022-08-17T02:06:06.073Z,100017.00
2022-08-17T02:09:02.636Z,100012.00
2022-08-17T02:11:34.764Z,100011.80
2022-08-17T02:14:04.068Z,100010.40
2022-08-17T02:16:36.790Z,100009.80
2022-08-17T02:19:11.806Z,100017.00
2022-08-17T02:21:44.037Z,100017.40
2022-08-17T02:24:58.671Z,100019.20
2022-08-17T02:27:13.727Z,100021.60
2022-08-17T02:29:41.529Z,100018.20
2022-08-17T02:32:27.464Z,100016.40
2022-08-17T02:34:57.994Z,100013.80
2022-08-17T02:37:28.657Z,100014.40
2022-08-17T02:39:58.498Z,100012.00
2022-08-17T02:42:33.814Z,100013.80
2022-08-17T02:45:05.245Z,100016.80
2022-08-17T02:47:33.878Z,100014.60
2022-08-17T02:50:01.711Z,100016.40
2022-08-17T02:52:38.251Z,100013.80
2022-08-17T02:55:20.641Z,100013.20
2022-08-17T02:57:49.328Z,100014.40
2022-08-17T03:00:23.455Z,100015.60
2022-08-17T03:02:52.128Z,100019.40
2022-08-17T03:05:23.929Z,100019.80
2022-08-17T03:07:52.139Z,100020.20
2022-08-17T03:10:21.608Z,100022.60
2022-08-17T03:12:50.419Z,100023.80
2022-08-17T03:15:28.927Z,100024.80
2022-08-17T03:17:58.101Z,100023.80
2022-08-17T03:20:28.835Z,100022.40
2022-08-17T03:23:02.901Z,100026.60
2022-08-17T03:25:38.817Z,100029.20
2022-08-17T03:28:07.744Z,100031.20
2022-08-17T03:30:36.314Z,100029.40
2022-08-17T03:33:09.981Z,100035.00
2022-08-17T03:35:40.420Z,100036.40
2022-08-17T03:38:15.026Z,100032.40
2022-08-17T03:40:56.438Z,100036.20
2022-08-17T03:43:31.408Z,100035.40
2022-08-17T03:46:28.272Z,100042.20
2022-08-17T03:49:24.991Z,100043.60
2022-08-17T03:52:15.832Z,100046.20
2022-08-17T03:55:03.821Z,100049.80
2022-08-17T03:57:32.408Z,100051.60
2022-08-17T04:00:00.378Z,100053.60
2022-08-17T04:02:34.380Z,100058.00
2022-08-17T04:05:02.207Z,100056.60
2022-08-17T04:07:31.846Z,100059.80
2022-08-17T04:10:00.020Z,100061.20
2022-08-17T04:12:31.154Z,100069.00
2022-08-17T04:14:59.654Z,100065.20
2022-08-17T04:17:29.366Z,100065.80
2022-08-17T04:19:57.711Z,100068.20
2022-08-17T04:22:30.954Z,100063.00
2022-08-17T04:25:00.354Z,100065.60
2022-08-17T04:27:28.135Z,100061.20
2022-08-17T04:29:56.284Z,100060.60
2022-08-17T04:32:59.336Z,100061.40
2022-08-17T04:35:11.917Z,100060.40
2022-08-17T04:37:39.647Z,100064.40
2022-08-17T04:40:27.525Z,100065.00
2022-08-17T04:43:23.975Z,100062.80
2022-08-17T04:46:14.797Z,100060.20
2022-08-17T04:48:47.308Z,100060.80
2022-08-17T04:51:24.070Z,100060.60
2022-08-17T04:53:56.825Z,100061.20
2022-08-17T04:56:27.573Z,100064.80
2022-08-17T04:59:01.544Z,100067.80
2022-08-17T05:01:34.782Z,100068.40
2022-08-17T05:04:33.663Z,100065.20
2022-08-17T05:06:55.864Z,100070.00
2022-08-17T05:09:23.671Z,100070.00
2022-08-17T05:11:52.222Z,100063.80
2022-08-17T05:14:33.365Z,100063.00
2022-08-17T05:17:10.938Z,100067.20
2022-08-17T05:19:39.371Z,100067.40
2022-08-17T05:22:07.741Z,100065.40
2022-08-17T05:24:42.920Z,100068.60
2022-08-17T05:27:12.848Z,100066.40
2022-08-17T05:29:46.791Z,100072.40
2022-08-17T05:32:38.675Z,100075.20
2022-08-17T05:35:03.483Z,100075.20
2022-08-17T05:37:31.319Z,100081.00
2022-08-17T05:39:59.117Z,100080.60
2022-08-17T05:42:27.034Z,100087.60
2022-08-17T05:44:58.816Z,100090.80
2022-08-17T05:47:27.621Z,100089.80
2022-08-17T05:49:55.604Z,100086.80
2022-08-17T05:53:03.918Z,100087.40
2022-08-17T05:55:59.565Z,100086.80
2022-08-17T05:59:00.980Z,100092.80
2022-08-17T06:01:59.405Z,100092.20
2022-08-17T06:05:04.858Z,100089.60
2022-08-17T06:07:56.092Z,100095.80
2022-08-17T06:10:58.967Z,100095.00
2022-08-17T06:14:00.969Z,100092.40
2022-08-17T06:16:39.071Z,100098.00
2022-08-17T06:19:33.272Z,100098.60
2022-08-17T06:22:02.827Z,100099.00
2022-08-17T06:25:01.047Z,100103.80
2022-08-17T06:27:42.777Z,100109.20
2022-08-17T06:30:29.022Z,100108.20
2022-08-17T06:33:26.878Z,100114.00
2022-08-17T06:36:31.672Z,100114.40
2022-08-17T06:40:10.948Z,100107.20
2022-08-17T06:43:12.759Z,100109.80
2022-08-17T06:45:50.445Z,100110.00
2022-08-17T06:48:52.405Z,100110.60
2022-08-17T06:52:42.129Z,100113.60
2022-08-17T06:55:32.178Z,100119.00
2022-08-17T06:58:16.254Z,100112.00
2022-08-17T07:00:48.290Z,100110.20
2022-08-17T07:03:58.205Z,100108.20
2022-08-17T07:06:38.524Z,100113.60
2022-08-17T07:09:18.896Z,100114.00
2022-08-17T07:12:15.979Z,100111.40
2022-08-17T07:14:56.419Z,100122.60
2022-08-17T07:17:47.760Z,100124.00
2022-08-17T07:20:22.778Z,100126.60
2022-08-17T07:23:21.117Z,100130.60
2022-08-17T07:25:50.296Z,100130.40
2022-08-17T07:28:28.454Z,100127.20
2022-08-17T07:30:56.276Z,100126.60
2022-08-17T07:33:26.938Z,100125.60
2022-08-17T07:35:57.395Z,100124.60
2022-08-17T07:38:35.592Z,100127.40
2022-08-17T07:41:10.668Z,100129.80
2022-08-17T07:43:41.330Z,100126.00
2022-08-17T07:46:54.047Z,100129.00
2022-08-17T07:49:34.009Z,100122.40
2022-08-17T07:52:47.825Z,100113.40
2022-08-17T07:54:59.481Z,100113.80
2022-08-17T07:57:34.183Z,100113.20
2022-08-17T08:00:01.938Z,100118.40
2022-08-17T08:02:43.854Z,100114.60
2022-08-17T08:05:44.292Z,100117.80
2022-08-17T08:08:36.707Z,100119.20
2022-08-17T08:11:10.470Z,100118.40
2022-08-17T08:13:43.849Z,100119.40
2022-08-17T08:16:21.590Z,100121.20
2022-08-17T08:19:00.938Z,100119.00
2022-08-17T08:21:44.635Z,100117.60
2022-08-17T08:24:56.103Z,100119.80
2022-08-17T08:27:29.608Z,100129.20
2022-08-17T08:30:14.385Z,100130.20
2022-08-17T08:33:13.925Z,100134.00
2022-08-17T08:36:59.326Z,100138.60
2022-08-17T08:39:42.213Z,100136.00
2022-08-17T08:42:48.854Z,100136.80
2022-08-17T08:45:32.694Z,100132.00
2022-08-17T08:48:53.786Z,100132.00
2022-08-17T08:51:33.851Z,100130.00
2022-08-17T08:54:13.672Z,100127.60
2022-08-17T08:57:25.638Z,100126.40
2022-08-17T09:00:24.915Z,100122.60
2022-08-17T09:03:52.389Z,100125.60
2022-08-17T09:06:43.426Z,100131.40
2022-08-17T09:10:05.092Z,100127.20
2022-08-17T09:12:44.779Z,100128.40
2022-08-17T09:15:27.545Z,100126.00
2022-08-17T09:19:01.796Z,100129.00
2022-08-17T09:21:18.173Z,100129.60
2022-08-17T09:24:09.828Z,100129.20
2022-08-17T09:27:04.623Z,100133.20
2022-08-17T09:29:38.941Z,100135.00
2022-08-17T09:32:41.200Z,100136.20
2022-08-17T09:35:19.864Z,100138.80
2022-08-17T09:37:59.664Z,100133.20
2022-08-17T09:40:46.474Z,100138.80
2022-08-17T09:43:38.585Z,100138.40
2022-08-17T09:47:03.810Z,100141.80
2022-08-17T09:49:56.817Z,100140.80
2022-08-17T09:52:29.367Z,100142.40
2022-08-17T09:55:00.081Z,100136.00
2022-08-17T09:57:51.965Z,100136.40
2022-08-17T10:00:28.218Z,100137.00
2022-08-17T10:03:28.286Z,100137.20
2022-08-17T10:06:23.199Z,100141.00
2022-08-17T10:09:21.110Z,100137.80
2022-08-17T10:12:17.290Z,100135.80
2022-08-17T10:15:17.368Z,100138.40
2022-08-17T10:17:50.697Z,100137.20
2022-08-17T10:20:47.575Z,100142.80
2022-08-17T10:23:43.137Z,100144.80
2022-08-17T10:26:25.085Z,100143.40
2022-08-17T10:28:59.777Z,100147.20
2022-08-17T10:31:40.691Z,100144.60
2022-08-17T10:34:52.566Z,100147.40
2022-08-17T10:37:20.235Z,100148.80
2022-08-17T10:40:09.246Z,100146.40
2022-08-17T10:42:51.475Z,100147.00
2022-08-17T10:45:26.422Z,100149.00
2022-08-17T10:48:06.322Z,100141.80
2022-08-17T10:50:59.163Z,100147.60
2022-08-17T10:53:32.687Z,100144.40
2022-08-17T10:56:12.921Z,100145.80
2022-08-17T10:58:55.907Z,100143.20
2022-08-17T11:01:32.948Z,100145.20
2022-08-17T11:04:49.655Z,100146.40
2022-08-17T11:07:35.201Z,100145.60
2022-08-17T11:10:34.458Z,100143.80
2022-08-17T11:13:29.306Z,100142.40
2022-08-17T11:16:13.152Z,100145.80
2022-08-17T11:19:13.990Z,100142.60
2022-08-17T11:22:16.691Z,100141.40
2022-08-17T11:24:52.819Z,100139.00
2022-08-17T11:27:30.881Z,100146.60
2022-08-17T11:30:03.010Z,100146.80
2022-08-17T11:32:54.539Z,100145.20
2022-08-17T11:35:22.835Z,100147.00
2022-08-17T11:38:15.926Z,100144.80
2022-08-17T11:41:37.628Z,100141.20
2022-08-17T11:45:07.474Z,100138.60
2022-08-17T11:48:26.708Z,100136.80
2022-08-17T11:51:12.455Z,100138.20
2022-08-17T11:53:40.128Z,100137.80
2022-08-17T11:56:28.876Z,100142.60
2022-08-17T11:58:56.770Z,100139.00
2022-08-17T12:01:26.810Z,100139.60
2022-08-17T12:04:21.900Z,100135.00
2022-08-17T12:06:56.961Z,100134.60
2022-08-17T12:09:30.082Z,100130.80
2022-08-17T12:12:29.591Z,100131.80
2022-08-17T12:15:10.015Z,100130.80
2022-08-17T12:17:41.550Z,100137.00
2022-08-17T12:20:32.034Z,100138.20
2022-08-17T12:23:47.418Z,100136.00
2022-08-17T12:26:23.199Z,100134.00
2022-08-17T12:29:02.942Z,100133.80
2022-08-17T12:31:47.179Z,100139.40
2022-08-17T12:34:26.555Z,100139.40
2022-08-17T12:37:01.221Z,100140.20
2022-08-17T12:39:33.996Z,100133.20
2022-08-17T12:42:02.996Z,100131.40
2022-08-17T12:44:35.459Z,100136.40
2022-08-17T12:47:22.715Z,100137.80
2022-08-17T12:49:53.946Z,100137.60
2022-08-17T12:52:29.191Z,100138.40
2022-08-17T12:55:24.608Z,100142.20
2022-08-17T12:57:59.620Z,100142.60
2022-08-17T13:00:47.363Z,100143.20
2022-08-17T13:03:27.842Z,100147.00
2022-08-17T13:06:03.903Z,100146.60
2022-08-17T13:08:43.265Z,100145.20
2022-08-17T13:11:14.044Z,100146.60
2022-08-17T13:13:46.374Z,100146.60
2022-08-17T13:16:17.215Z,100144.20
2022-08-17T13:19:09.489Z,100136.00
2022-08-17T13:21:44.301Z,100140.40
2022-08-17T13:24:12.145Z,100133.60
2022-08-17T13:26:44.672Z,100133.00
2022-08-17T13:29:39.257Z,100123.00
2022-08-17T13:32:13.026Z,100120.80
2022-08-17T13:35:15.226Z,100119.20
2022-08-17T13:37:59.439Z,100116.40
2022-08-17T13:40:41.753Z,100116.60
2022-08-17T13:43:10.821Z,100126.60
2022-08-17T13:45:50.743Z,100126.60
2022-08-17T13:48:29.300Z,100126.20
2022-08-17T13:50:57.046Z,100128.20
2022-08-17T13:53:56.026Z,100132.20
2022-08-17T13:56:49.588Z,100133.40
2022-08-17T13:59:52.901Z,100134.40
2022-08-17T14:02:27.227Z,100145.60
2022-08-17T14:04:57.323Z,100148.60
2022-08-17T14:07:34.780Z,100152.20
2022-08-17T14:10:08.317Z,100157.80
2022-08-17T14:12:39.720Z,100163.80
2022-08-17T14:15:08.907Z,100170.60
2022-08-17T14:17:39.103Z,100168.60
2022-08-17T14:20:10.992Z,100168.20
2022-08-17T14:22:44.905Z,100160.80
2022-08-17T14:25:16.704Z,100153.20
2022-08-17T14:27:53.044Z,100149.20
2022-08-17T14:30:25.526Z,100147.00
2022-08-17T14:32:55.168Z,100146.00
2022-08-17T14:35:24.923Z,100142.00
2022-08-17T14:37:53.111Z,100140.00
2022-08-17T14:40:24.929Z,100140.60
2022-08-17T14:42:55.634Z,100144.40
2022-08-17T14:45:30.171Z,100140.20
2022-08-17T14:48:05.711Z,100136.80
2022-08-17T14:50:38.959Z,100136.60
2022-08-17T14:53:09.698Z,100139.40
2022-08-17T14:55:40.716Z,100138.60
2022-08-17T14:58:09.398Z,100131.20
2022-08-17T15:00:39.496Z,100132.00
2022-08-17T15:03:07.468Z,100126.20
2022-08-17T15:05:39.527Z,100131.40
2022-08-17T15:08:07.731Z,100129.60
2022-08-17T15:10:36.020Z,100127.60
2022-08-17T15:13:03.930Z,100125.00
2022-08-17T15:15:31.805Z,100123.00
2022-08-17T15:18:00.077Z,100129.00
2022-08-17T15:20:29.648Z,100128.80
2022-08-17T15:22:59.106Z,100129.40
2022-08-17T15:25:31.892Z,100129.60
2022-08-17T15:28:01.254Z,100129.60
2022-08-17T15:30:30.120Z,100127.80
2022-08-17T15:32:59.487Z,100124.40
2022-08-17T15:35:32.527Z,100121.60
2022-08-17T15:38:11.232Z,100122.00
2022-08-17T15:40:45.311Z,100122.60
2022-08-17T15:43:17.641Z,100127.40
2022-08-17T15:45:56.793Z,100123.60
2022-08-17T15:48:43.018Z,100120.00
2022-08-17T15:51:17.853Z,100117.60
2022-08-17T15:53:50.999Z,100121.00
2022-08-17T15:56:19.881Z,100121.60
2022-08-17T15:58:49.284Z,100119.80
2022-08-17T16:02:15.385Z,100115.00
2022-08-17T16:04:26.958Z,100115.80
2022-08-17T16:06:58.801Z,100119.80
2022-08-17T16:09:27.658Z,100123.20
2022-08-17T16:11:56.372Z,100128.20
2022-08-17T16:14:28.890Z,100130.40
2022-08-17T16:17:00.687Z,100129.80
2022-08-17T16:19:28.492Z,100129.80
2022-08-17T16:21:56.518Z,100131.20
2022-08-17T16:24:24.560Z,100134.00
2022-08-17T16:26:52.403Z,100135.40
2022-08-17T16:29:21.446Z,100136.00
2022-08-17T16:31:49.963Z,100137.00
2022-08-17T16:34:18.987Z,100139.20
2022-08-17T16:36:55.287Z,100139.40
2022-08-17T16:39:27.183Z,100144.80
2022-08-17T16:41:56.245Z,100142.00
2022-08-17T16:44:27.496Z,100146.60
2022-08-17T16:46:55.988Z,100146.80
2022-08-17T16:49:36.217Z,100143.20
2022-08-17T16:52:10.573Z,100147.40
2022-08-17T16:54:43.633Z,100157.80
2022-08-17T16:57:16.664Z,100156.40
2022-08-17T16:59:48.081Z,100165.00
2022-08-17T17:02:38.875Z,100167.00
2022-08-17T17:06:09.565Z,100168.60
2022-08-17T17:09:00.434Z,100172.00
2022-08-17T17:11:40.484Z,100176.20
2022-08-17T17:14:29.409Z,100176.80
2022-08-17T17:17:36.721Z,100178.40
2022-08-17T17:20:24.246Z,100177.00
2022-08-17T17:23:14.455Z,100172.40
2022-08-17T17:26:36.077Z,100171.80
2022-08-17T17:29:48.814Z,100168.60
2022-08-17T17:32:37.853Z,100175.00
2022-08-17T17:35:20.896Z,100179.40
2022-08-17T17:37:50.452Z,100184.00
2022-08-17T17:40:37.000Z,100189.00
2022-08-17T17:43:36.959Z,100194.00
2022-08-17T17:46:29.149Z,100197.80
2022-08-17T17:48:58.363Z,100201.60
2022-08-17T17:52:03.556Z,100204.20
2022-08-17T17:55:06.143Z,100203.20
2022-08-17T17:57:58.763Z,100206.60
2022-08-17T18:00:39.314Z,100212.00
2022-08-17T18:03:27.072Z,100216.60
2022-08-17T18:06:46.720Z,100216.20
2022-08-17T18:10:29.229Z,100217.80
2022-08-17T18:13:21.769Z,100217.40
2022-08-17T18:15:55.592Z,100220.20
2022-08-17T18:18:37.794Z,100229.40
2022-08-17T18:21:16.722Z,100228.80
2022-08-17T18:24:07.453Z,100232.00
2022-08-17T18:26:56.585Z,100228.80
2022-08-17T18:29:34.537Z,100227.80
2022-08-17T18:32:37.031Z,100233.60
2022-08-17T18:35:14.291Z,100229.80
2022-08-17T18:37:50.223Z,100226.00
2022-08-17T18:40:19.139Z,100223.80
2022-08-17T18:43:00.093Z,100229.00
2022-08-17T18:45:53.777Z,100231.60
2022-08-17T18:48:53.540Z,100232.40
2022-08-17T18:51:43.253Z,100237.80
2022-08-17T18:54:19.817Z,100236.00
2022-08-17T18:56:59.941Z,100236.80
2022-08-17T18:59:41.784Z,100242.00
2022-08-17T19:02:21.599Z,100247.60
2022-08-17T19:05:08.674Z,100247.00
2022-08-17T19:07:45.355Z,100249.80
2022-08-17T19:10:45.891Z,100255.20
2022-08-17T19:13:27.541Z,100257.00
2022-08-17T19:16:24.055Z,100256.80
2022-08-17T19:19:21.661Z,100258.40
2022-08-17T19:21:53.989Z,100259.20
2022-08-17T19:24:31.707Z,100255.60
2022-08-17T19:27:06.153Z,100255.60
2022-08-17T19:29:38.898Z,100257.20
2022-08-17T19:32:10.093Z,100257.80
2022-08-17T19:34:42.522Z,100261.80
2022-08-17T19:37:23.461Z,100265.60
2022-08-17T19:40:50.645Z,100264.20
2022-08-17T19:44:08.927Z,100267.20
2022-08-17T19:47:00.866Z,100269.60
2022-08-17T19:49:57.826Z,100267.80
2022-08-17T19:52:46.980Z,100263.60
2022-08-17T19:55:51.934Z,100270.80
2022-08-17T19:58:31.898Z,100279.40
2022-08-17T20:01:01.834Z,100280.00
2022-08-17T20:03:46.222Z,100281.40
2022-08-17T20:06:14.559Z,100279.20
2022-08-17T20:08:53.985Z,100278.80
2022-08-17T20:12:07.373Z,100280.20
2022-08-17T20:14:53.935Z,100270.80
2022-08-17T20:17:42.575Z,100273.00
2022-08-17T20:20:32.132Z,100276.60
2022-08-17T20:23:14.985Z,100277.80
2022-08-17T20:25:59.322Z,100276.40
2022-08-17T20:28:31.588Z,100282.80
2022-08-17T20:30:59.769Z,100282.40
2022-08-17T20:33:37.565Z,100286.00
2022-08-17T20:36:05.310Z,100285.40
2022-08-17T20:38:46.057Z,100291.40
2022-08-17T20:41:31.682Z,100291.80
2022-08-17T20:44:04.278Z,100293.80
2022-08-17T20:46:38.145Z,100289.00
2022-08-17T20:49:08.991Z,100286.00
2022-08-17T20:52:00.468Z,100286.60
2022-08-17T20:54:52.969Z,100289.80
2022-08-17T20:57:32.687Z,100289.80
2022-08-17T21:00:29.861Z,100294.40
2022-08-17T21:03:47.628Z,100303.40
2022-08-17T21:06:22.644Z,100311.00
2022-08-17T21:09:29.888Z,100311.40
2022-08-17T21:12:04.166Z,100317.60
2022-08-17T21:14:51.293Z,100317.00
2022-08-17T21:17:38.147Z,100315.20
2022-08-17T21:20:40.176Z,100309.40
2022-08-17T21:23:21.200Z,100312.80
2022-08-17T21:26:30.830Z,100313.60
2022-08-17T21:29:14.697Z,100315.20
2022-08-17T21:31:59.486Z,100329.00
2022-08-17T21:34:37.275Z,100335.00
2022-08-17T21:37:20.518Z,100337.80
2022-08-17T21:40:22.613Z,100334.60
2022-08-17T21:43:00.251Z,100334.00
2022-08-17T21:45:37.734Z,100337.20
2022-08-17T21:48:24.004Z,100333.00
2022-08-17T21:51:13.982Z,100330.20
2022-08-17T21:53:50.628Z,100323.60
2022-08-17T21:56:28.496Z,100320.40
2022-08-17T21:59:27.480Z,100320.40
2022-08-17T22:01:58.625Z,100317.80
2022-08-17T22:04:40.680Z,100316.00
2022-08-17T22:07:14.199Z,100311.20
2022-08-17T22:09:50.036Z,100313.40
2022-08-17T22:12:24.255Z,100305.60
2022-08-17T22:15:02.297Z,100303.00
2022-08-17T22:17:35.442Z,100304.80
2022-08-17T22:20:20.725Z,100309.60
2022-08-17T22:23:07.023Z,100309.40
2022-08-17T22:25:39.888Z,100306.20
2022-08-17T22:28:11.546Z,100297.40
2022-08-17T22:30:59.705Z,100297.00
2022-08-17T22:34:02.678Z,100296.20
2022-08-17T22:36:41.861Z,100292.00
2022-08-17T22:39:09.615Z,100290.00
2022-08-17T22:41:57.230Z,100291.60
2022-08-17T22:44:29.504Z,100290.40
2022-08-17T22:47:16.431Z,100284.00
2022-08-17T22:49:58.016Z,100286.00
2022-08-17T22:52:59.113Z,100283.00
2022-08-17T22:55:52.042Z,100283.20
2022-08-17T22:58:42.627Z,100276.60
2022-08-17T23:01:39.152Z,100278.20
2022-08-17T23:04:31.654Z,100272.40
2022-08-17T23:06:59.635Z,100276.60
2022-08-17T23:09:27.394Z,100276.20
2022-08-17T23:11:58.550Z,100272.80
2022-08-17T23:14:31.894Z,100271.60
2022-08-17T23:17:01.099Z,100268.60
2022-08-17T23:19:31.763Z,100265.40
2022-08-17T23:22:02.776Z,100261.20
2022-08-17T23:24:37.837Z,100259.60
2022-08-17T23:27:07.453Z,100256.40
2022-08-17T23:29:39.330Z,100259.40
2022-08-17T23:32:09.953Z,100259.00
2022-08-17T23:34:39.894Z,100258.80
2022-08-17T23:37:10.278Z,100260.60
2022-08-17T23:39:39.464Z,100263.40
2022-08-17T23:42:12.067Z,100263.00
2022-08-17T23:44:50.719Z,100256.20
2022-08-17T23:47:18.826Z,100250.40
2022-08-17T23:49:46.513Z,100250.00
2022-08-17T23:52:15.825Z,100254.00
2022-08-17T23:54:48.526Z,100255.00
2022-08-17T23:57:20.371Z,100252.40
